AirNav   ATP
 
 925 users online  

0E9 Corydon Airport
Corydon, Iowa, USA

GOING TO CORYDON?


FAA INFORMATION EFFECTIVE 04 JANUARY 2018

Location

FAA Identifier: 0E9
Lat/Long: 40-45-22.4200N / 093-14-25.2100W
40-45.373667N / 093-14.420167W
40.7562278 / -93.2403361
(estimated)
Elevation: 1045 ft. / 319 m (estimated)
Variation: 04E (1980)
From city: 4 miles E of CORYDON, IA
Time zone: UTC -6 (UTC -5 during Daylight Saving Time)
Zip code: 50060

Airport Operations

Airport use: Open to the public
Activation date: 10/1986
Control tower: no
ARTCC: CHICAGO CENTER
FSS: FORT DODGE FLIGHT SERVICE STATION
NOTAMs facility: FOD (NOTAM-D service available)
Attendance: SR-SS
Wind indicator: yes
Segmented circle: no

Airport Communications

CTAF/UNICOM: 122.8
WX AWOS-3 at TVK (16 nm E): 123.775 (641-437-1213)
WX AWOS-3 at CNC (17 nm N): 125.525 (641-774-5645)

Nearby radio navigation aids

VOR radial/distance  VOR name  Freq  Var
LMNr067/34.4LAMONI VOR/DME116.7007E

 
NDB name  Hdg/Dist  Freq  Var  ID
BLOOMFIELD269/36.826902EBEX -... . -..-

Airport Services

Fuel available: MOGAS

Runway Information

Runway 9/27

Dimensions: 3270 x 80 ft. / 997 x 24 m
Surface: turf, in fair condition
Runway edge markings: 09/27 ENDS & DSPLCD THLD MARKED WITH YELLOW CONES; TWO OUTBOARD CONES EACH SIDE OF RY MARK DSPLCD THLD.
Gradient: W
RUNWAY 9  RUNWAY 27
Latitude: 40-45.268000N40-45.299500N
Longitude: 093-14.901833W093-14.194667W
Elevation: 1045.0 ft.1028.0 ft.
Gradient: 0.5% UP
Traffic pattern: leftleft
Displaced threshold: 1080 ft.no
Obstructions: 62 ft. tree, 550 ft. from runway, 80 ft. right of centerline, 8:1 slope to clear
APCH SLOPE 26:1 TO DSPLCD THLD.
4 ft. road, 120 ft. from runway, 30:1 slope to clear

Runway 11W/29W

Dimensions: 3000 x 100 ft. / 914 x 30 m
Surface: water
RUNWAY 11W  RUNWAY 29W
Latitude: 40-45.568902N40-45.375638N
Longitude: 093-14.577853W093-13.979725W
Elevation: 1009.0 ft.1002.0 ft.
Traffic pattern: leftleft
Runway heading: 109 magnetic, 113 true289 magnetic, 293 true

Airport Ownership and Management from official FAA records

Ownership: Privately-owned
Owner: BENNY DAVIS
RT 2
CORYDON, IA 50060
Phone 515-872-2032
Manager: BENNY DAVIS
RT 2
CORYDON, IA 50060
Phone 515-872-2032

Airport Operational Statistics

Aircraft based on the field: 3
Single engine airplanes: 3
    

Additional Remarks

RY 09 HAS TALL GRASS & WEEDS HIDING DSPLCD THLD MARKER CONES.

Instrument Procedures

There are no published instrument procedures at 0E9.

Some nearby airports with instrument procedures:

KTVK - Centerville Municipal Airport (16 nm E)
KCNC - Chariton Municipal Airport (17 nm N)
4C8 - Albia Municipal Airport (26 nm NE)
I75 - Osceola Municipal Airport (27 nm NW)
KLWD - Lamoni Municipal Airport (31 nm W)
 
Loc | Ops | Rwys | IFR | FBO | Links
Com | Nav | Svcs | Stats | Notes


 
Area around 0E9 (Corydon Airport)
 
Road maps at: MapQuest Bing Google
 
Aerial photo
No photo
 
Sectional chart

 
Airport distance calculator
Flying to Corydon Airport? Find the distance to fly.

From to 0E9

Sunrise and sunset
Times for 21-Jan-2018
 Local
(UTC-6)
 Zulu
(UTC)
Morning civil twilight07:0313:03
Sunrise07:3313:33
Sunset17:1623:16
Evening civil twilight17:4623:46

Current date and time
Zulu (UTC)  22-Jan-2018 00:03:21
Local (UTC-6)  21-Jan-2018 18:03:21
 
METAR
KTVK 
16nm E 
212335Z AUTO 00000KT 10SM 09/09 A2975 RMK AO2
KCNC 
17nm N 
212355Z AUTO 07006KT 7SM OVC009 07/06 A2973 RMK AO2
KI75 
27nm NW 
212355Z AUTO 04008KT 1 1/4SM BR OVC003 06/06 A2972 RMK AO2 T00610057 10071 20056
KLWD 
31nm W 
212353Z AUTO 08005KT 7SM FEW045 09/08 A2969 RMK AO2 SLP059 T00940083 10122 20089 58006
TAF
KOTM 
41nm NE 
212109Z 2121/2218 10007KT P6SM BKN015 OVC035 FM220300 09007KT 2SM -RA BR SCT004 OVC012 FM220900 12008KT 1SM BR VCSH OVC004 FM221200 14008KT 1 1/2SM BR BKN004
NOTAMs
Click for the latest NOTAMs
NOTAMs are issued by the DoD/FAA and will open in a separate window not controlled by AirNav.

 

 
 

Aviation Businesses, Services, and Facilities

  
 Business Name 
 
 Contact 
 
 Services / Description 
 
Distance
 
Comments
  
Corydon Airport 641-872-2032
no information available

If you are affiliated with Corydon Airport and would like to show here your services, contact info, web link, logo, and more, click here
on airport  
   write
 

Would you like to see your business listed on this page?

 If your business provides an interesting product or service to pilots, flight crews, aircraft, or users of the Corydon Airport, you should consider listing it here.  To start the listing process, click on the button below
 
Add a business
 

Other Pages about Corydon Airport

Page from the Iowa Airport Directory
 
Update a link
 
Copyright © AirNav, LLC. All rights reserved. Privacy Policy  Contact